createdAt,value
2023-10-17T00:01:20.380Z,52.96
2023-10-17T00:03:48.606Z,53.24
2023-10-17T00:06:35.626Z,53.50
2023-10-17T00:09:07.066Z,53.45
2023-10-17T00:12:02.051Z,53.09
2023-10-17T00:14:36.480Z,53.10
2023-10-17T00:17:05.590Z,53.33
2023-10-17T00:19:34.013Z,53.19
2023-10-17T00:22:04.861Z,52.98
2023-10-17T00:24:32.980Z,53.47
2023-10-17T00:27:01.121Z,53.18
2023-10-17T00:29:29.040Z,53.42
2023-10-17T00:31:57.324Z,53.05
2023-10-17T00:34:26.530Z,53.22
2023-10-17T00:37:02.248Z,52.94
2023-10-17T00:39:33.703Z,53.39
2023-10-17T00:42:06.007Z,53.32
2023-10-17T00:44:41.025Z,53.37
2023-10-17T00:47:13.109Z,53.31
2023-10-17T00:49:42.721Z,53.15
2023-10-17T00:52:25.697Z,53.27
2023-10-17T00:54:58.461Z,52.92
2023-10-17T00:57:30.190Z,53.23
2023-10-17T00:59:59.109Z,53.00
2023-10-17T01:02:33.197Z,52.75
2023-10-17T01:05:01.397Z,53.04
2023-10-17T01:07:32.679Z,52.87
2023-10-17T01:10:15.605Z,53.14
2023-10-17T01:13:08.954Z,52.80
2023-10-17T01:15:39.942Z,52.95
2023-10-17T01:18:08.083Z,52.79
2023-10-17T01:20:37.006Z,53.08
2023-10-17T01:23:05.813Z,52.91
2023-10-17T01:25:52.420Z,53.00
2023-10-17T01:28:30.308Z,53.17
2023-10-17T01:31:02.586Z,52.80
2023-10-17T01:33:32.249Z,52.92
2023-10-17T01:36:06.077Z,53.03
2023-10-17T01:38:34.052Z,52.96
2023-10-17T01:41:02.025Z,52.77
2023-10-17T01:43:38.716Z,52.58
2023-10-17T01:46:07.384Z,52.99
2023-10-17T01:48:36.523Z,52.60
2023-10-17T01:51:14.117Z,53.03
2023-10-17T01:53:44.921Z,53.07
2023-10-17T01:56:16.555Z,52.56
2023-10-17T01:58:51.295Z,52.59
2023-10-17T02:01:26.498Z,52.97
2023-10-17T02:03:59.070Z,52.85
2023-10-17T02:06:27.902Z,52.95
2023-10-17T02:09:00.029Z,52.94
2023-10-17T02:11:27.845Z,52.83
2023-10-17T02:13:58.006Z,52.42
2023-10-17T02:16:30.029Z,52.80
2023-10-17T02:18:58.548Z,52.85
2023-10-17T02:21:28.938Z,52.41
2023-10-17T02:23:57.107Z,52.80
2023-10-17T02:26:29.918Z,52.74
2023-10-17T02:29:05.895Z,52.78
2023-10-17T02:31:34.743Z,52.28
2023-10-17T02:34:02.676Z,52.96
2023-10-17T02:36:30.906Z,52.78
2023-10-17T02:38:58.854Z,52.82
2023-10-17T02:41:26.648Z,52.43
2023-10-17T02:43:57.905Z,52.74
2023-10-17T02:46:30.008Z,52.47
2023-10-17T02:48:58.922Z,52.62
2023-10-17T02:51:26.838Z,52.06
2023-10-17T02:53:59.686Z,52.46
2023-10-17T02:56:28.062Z,52.32
2023-10-17T02:59:18.919Z,52.55
2023-10-17T03:01:54.298Z,52.70
2023-10-17T03:04:25.446Z,52.35
2023-10-17T03:06:55.514Z,52.49
2023-10-17T03:09:25.179Z,52.45
2023-10-17T03:11:58.193Z,52.72
2023-10-17T03:14:55.357Z,52.49
2023-10-17T03:17:23.260Z,52.45
2023-10-17T03:19:51.315Z,52.20
2023-10-17T03:22:25.915Z,52.24
2023-10-17T03:25:19.500Z,52.42
2023-10-17T03:27:51.114Z,52.22
2023-10-17T03:30:21.955Z,52.32
2023-10-17T03:32:59.815Z,52.12
2023-10-17T03:35:30.618Z,52.42
2023-10-17T03:37:58.530Z,52.33
2023-10-17T03:40:36.493Z,52.45
2023-10-17T03:43:13.686Z,52.41
2023-10-17T03:45:45.748Z,52.13
2023-10-17T03:48:16.826Z,52.05
2023-10-17T03:50:44.817Z,52.28
2023-10-17T03:53:16.866Z,51.91
2023-10-17T03:55:50.023Z,52.26
2023-10-17T03:58:25.725Z,51.77
2023-10-17T04:00:58.522Z,52.26
2023-10-17T04:03:28.342Z,52.38
2023-10-17T04:06:09.045Z,52.08
2023-10-17T04:08:50.070Z,52.27
2023-10-17T04:11:27.620Z,52.22
2023-10-17T04:14:02.554Z,51.88
2023-10-17T04:16:36.548Z,52.40
2023-10-17T04:19:18.348Z,51.87
2023-10-17T04:22:10.147Z,51.88
2023-10-17T04:24:50.636Z,51.83
2023-10-17T04:27:19.162Z,52.19
2023-10-17T04:29:57.949Z,52.11
2023-10-17T04:32:31.046Z,52.25
2023-10-17T04:34:59.172Z,51.88
2023-10-17T04:37:33.873Z,52.27
2023-10-17T04:40:31.387Z,52.20
2023-10-17T04:43:19.088Z,52.55
2023-10-17T04:45:56.386Z,52.62
2023-10-17T04:48:42.221Z,52.56
2023-10-17T04:51:19.357Z,52.59
2023-10-17T04:53:51.346Z,52.49
2023-10-17T04:56:24.339Z,53.02
2023-10-17T04:58:57.464Z,52.40
2023-10-17T05:01:41.134Z,52.79
2023-10-17T05:04:18.367Z,52.79
2023-10-17T05:07:13.561Z,52.26
2023-10-17T05:09:41.438Z,52.64
2023-10-17T05:12:29.703Z,52.20
2023-10-17T05:15:16.562Z,52.38
2023-10-17T05:18:03.526Z,52.37
2023-10-17T05:20:50.005Z,52.38
2023-10-17T05:23:36.809Z,52.66
2023-10-17T05:26:25.401Z,52.87
2023-10-17T05:29:13.157Z,53.05
2023-10-17T05:32:02.572Z,53.52
2023-10-17T05:34:52.125Z,53.22
2023-10-17T05:37:38.772Z,52.55
2023-10-17T05:40:26.228Z,52.92
2023-10-17T05:43:12.836Z,52.95
2023-10-17T05:45:59.614Z,53.17
2023-10-17T05:48:46.284Z,53.51
2023-10-17T05:51:32.954Z,53.53
2023-10-17T05:54:47.362Z,53.43
2023-10-17T05:57:26.397Z,53.13
2023-10-17T06:00:13.006Z,53.16
2023-10-17T06:02:59.544Z,52.77
2023-10-17T06:05:46.300Z,52.77
2023-10-17T06:08:32.832Z,52.95
2023-10-17T06:11:19.486Z,53.42
2023-10-17T06:14:25.865Z,53.68
2023-10-17T06:16:53.922Z,53.35
2023-10-17T06:19:22.989Z,53.55
2023-10-17T06:22:03.586Z,53.12
2023-10-17T06:24:47.460Z,52.99
2023-10-17T06:27:35.767Z,52.80
2023-10-17T06:30:27.543Z,53.26
2023-10-17T06:33:07.436Z,53.40
2023-10-17T06:35:38.884Z,53.52
2023-10-17T06:38:07.130Z,54.04
2023-10-17T06:40:39.646Z,53.36
2023-10-17T06:43:30.704Z,53.64
2023-10-17T06:46:13.478Z,54.13
2023-10-17T06:48:51.237Z,53.83
2023-10-17T06:51:22.504Z,53.64
2023-10-17T06:53:53.298Z,53.69
2023-10-17T06:56:21.331Z,53.55
2023-10-17T06:58:50.061Z,52.95
2023-10-17T07:01:29.218Z,52.73
2023-10-17T07:03:57.345Z,52.93
2023-10-17T07:06:28.838Z,52.60
2023-10-17T07:08:57.705Z,52.89
2023-10-17T07:11:28.299Z,52.72
2023-10-17T07:14:08.382Z,52.34
2023-10-17T07:16:47.406Z,52.44
2023-10-17T07:19:24.409Z,52.31
2023-10-17T07:22:00.879Z,52.54
2023-10-17T07:24:34.817Z,52.56
2023-10-17T07:27:05.250Z,52.14
2023-10-17T07:29:37.666Z,52.48
2023-10-17T07:32:17.689Z,52.11
2023-10-17T07:34:45.997Z,52.78
2023-10-17T07:37:14.301Z,52.65
2023-10-17T07:39:42.429Z,52.93
2023-10-17T07:42:30.730Z,52.87
2023-10-17T07:45:04.162Z,52.86
2023-10-17T07:47:35.473Z,52.95
2023-10-17T07:50:03.763Z,52.53
2023-10-17T07:52:32.518Z,52.97
2023-10-17T07:55:00.691Z,52.71
2023-10-17T07:57:41.753Z,52.33
2023-10-17T08:00:30.317Z,52.27
2023-10-17T08:03:16.849Z,52.01
2023-10-17T08:06:14.519Z,52.06
2023-10-17T08:08:45.570Z,52.16
2023-10-17T08:11:28.996Z,51.88
2023-10-17T08:13:59.475Z,51.87
2023-10-17T08:16:30.767Z,51.62
2023-10-17T08:19:14.982Z,51.70
2023-10-17T08:21:50.599Z,52.07
2023-10-17T08:24:47.798Z,52.00
2023-10-17T08:27:21.672Z,51.56
2023-10-17T08:29:51.295Z,51.64
2023-10-17T08:32:23.024Z,51.89
2023-10-17T08:35:12.831Z,52.14
2023-10-17T08:37:53.678Z,51.77
2023-10-17T08:40:41.271Z,51.77
2023-10-17T08:43:18.335Z,51.49
2023-10-17T08:45:55.775Z,51.50
2023-10-17T08:48:24.122Z,51.51
2023-10-17T08:50:56.636Z,51.70
2023-10-17T08:53:25.302Z,51.45
2023-10-17T08:55:53.745Z,51.87
2023-10-17T08:58:38.006Z,52.02
2023-10-17T09:01:11.827Z,51.63
2023-10-17T09:03:48.310Z,51.68
2023-10-17T09:06:16.626Z,52.08
2023-10-17T09:08:50.798Z,51.85
2023-10-17T09:11:31.140Z,51.89
2023-10-17T09:14:16.657Z,51.85
2023-10-17T09:17:17.256Z,52.15
2023-10-17T09:19:47.811Z,51.95
2023-10-17T09:22:16.872Z,51.98
2023-10-17T09:24:51.623Z,52.34
2023-10-17T09:27:20.776Z,52.38
2023-10-17T09:29:50.788Z,52.36
2023-10-17T09:32:34.349Z,52.71
2023-10-17T09:35:15.312Z,52.56
2023-10-17T09:37:54.115Z,52.47
2023-10-17T09:40:31.330Z,52.47
2023-10-17T09:43:00.724Z,52.93
2023-10-17T09:45:36.136Z,53.70
2023-10-17T09:48:08.460Z,53.63
2023-10-17T09:50:39.207Z,53.65
2023-10-17T09:53:15.004Z,53.83
2023-10-17T09:55:50.740Z,53.51
2023-10-17T09:58:25.293Z,53.37
2023-10-17T10:00:56.377Z,53.38
2023-10-17T10:03:26.258Z,53.55
2023-10-17T10:05:55.258Z,53.48
2023-10-17T10:08:36.175Z,53.68
2023-10-17T10:11:10.120Z,53.77
2023-10-17T10:14:04.666Z,53.92
2023-10-17T10:16:56.625Z,53.51
2023-10-17T10:19:47.644Z,53.99
2023-10-17T10:22:16.971Z,53.84
2023-10-17T10:24:47.414Z,54.21
2023-10-17T10:27:26.141Z,54.16
2023-10-17T10:29:55.979Z,54.03
2023-10-17T10:32:27.136Z,54.15
2023-10-17T10:34:55.604Z,53.92
2023-10-17T10:37:23.904Z,54.05
2023-10-17T10:40:24.155Z,53.98
2023-10-17T10:43:00.606Z,54.19
2023-10-17T10:45:48.202Z,54.29
2023-10-17T10:48:18.700Z,53.92
2023-10-17T10:50:50.940Z,54.46
2023-10-17T10:53:29.921Z,54.61
2023-10-17T10:56:01.046Z,54.30
2023-10-17T10:58:34.904Z,54.13
2023-10-17T11:01:07.375Z,54.11
2023-10-17T11:03:41.509Z,54.52
2023-10-17T11:06:09.915Z,54.16
2023-10-17T11:08:49.082Z,54.50
2023-10-17T11:11:18.488Z,54.37
2023-10-17T11:13:49.136Z,54.94
2023-10-17T11:16:20.014Z,54.55
2023-10-17T11:18:49.409Z,55.71
2023-10-17T11:21:22.107Z,55.62
2023-10-17T11:23:56.633Z,54.96
2023-10-17T11:26:29.556Z,55.31
2023-10-17T11:28:59.908Z,55.26
2023-10-17T11:31:28.467Z,55.18
2023-10-17T11:34:01.149Z,55.49
2023-10-17T11:36:38.208Z,55.23
2023-10-17T11:39:07.342Z,55.33
2023-10-17T11:41:56.076Z,55.50
2023-10-17T11:44:26.480Z,55.73
2023-10-17T11:47:17.959Z,55.59
2023-10-17T11:49:48.955Z,55.74
2023-10-17T11:52:17.213Z,56.05
2023-10-17T11:55:05.685Z,56.71
2023-10-17T11:57:34.399Z,56.13
2023-10-17T12:00:10.362Z,56.28
2023-10-17T12:02:43.835Z,56.44
2023-10-17T12:05:22.482Z,56.41
2023-10-17T12:07:55.810Z,56.41
2023-10-17T12:10:28.406Z,56.75
2023-10-17T12:13:06.672Z,56.67
2023-10-17T12:15:34.840Z,56.50
2023-10-17T12:18:02.842Z,56.64
2023-10-17T12:20:30.840Z,56.13
2023-10-17T12:23:00.870Z,56.09
2023-10-17T12:25:30.763Z,56.14
2023-10-17T12:27:58.837Z,56.21
2023-10-17T12:30:30.169Z,55.99
2023-10-17T12:32:59.009Z,56.21
2023-10-17T12:35:29.776Z,56.38
2023-10-17T12:38:07.892Z,56.32
2023-10-17T12:40:35.801Z,56.21
2023-10-17T12:43:03.776Z,56.21
2023-10-17T12:45:31.763Z,56.12
2023-10-17T12:48:00.391Z,55.90
2023-10-17T12:50:28.963Z,56.00
2023-10-17T12:52:57.222Z,56.01
2023-10-17T12:55:25.108Z,56.01
2023-10-17T12:57:53.847Z,56.00
2023-10-17T13:00:27.722Z,55.90
2023-10-17T13:02:57.474Z,55.68
2023-10-17T13:05:27.604Z,55.82
2023-10-17T13:07:56.216Z,55.56
2023-10-17T13:10:24.347Z,55.60
2023-10-17T13:12:52.398Z,55.86
2023-10-17T13:15:20.973Z,55.50
2023-10-17T13:17:53.980Z,55.60
2023-10-17T13:20:43.263Z,56.03
2023-10-17T13:23:21.885Z,55.74
2023-10-17T13:25:49.877Z,55.80
2023-10-17T13:28:17.849Z,55.71
2023-10-17T13:30:46.084Z,55.72
2023-10-17T13:33:14.050Z,55.91
2023-10-17T13:35:42.503Z,56.22
2023-10-17T13:38:11.188Z,55.93
2023-10-17T13:40:40.245Z,56.02
2023-10-17T13:43:08.494Z,55.93
2023-10-17T13:45:43.229Z,55.82
2023-10-17T13:48:13.201Z,55.90
2023-10-17T13:50:41.424Z,55.70
2023-10-17T13:53:11.048Z,56.06
2023-10-17T13:55:42.837Z,55.50
2023-10-17T13:58:13.082Z,55.93
2023-10-17T14:00:55.821Z,55.72
2023-10-17T14:03:27.018Z,55.47
2023-10-17T14:05:55.707Z,55.77
2023-10-17T14:08:23.976Z,55.89
2023-10-17T14:10:52.309Z,55.93
2023-10-17T14:13:22.024Z,55.74
2023-10-17T14:15:53.440Z,56.00
2023-10-17T14:18:31.149Z,56.00
2023-10-17T14:21:25.287Z,55.95
2023-10-17T14:23:59.461Z,55.93
2023-10-17T14:26:39.703Z,56.00
2023-10-17T14:29:08.813Z,56.15
2023-10-17T14:31:37.829Z,55.95
2023-10-17T14:34:10.692Z,55.91
2023-10-17T14:36:39.103Z,55.79
2023-10-17T14:39:11.128Z,56.00
2023-10-17T14:41:41.690Z,55.65
2023-10-17T14:44:09.977Z,55.79
2023-10-17T14:46:38.635Z,56.08
2023-10-17T14:49:07.157Z,56.00
2023-10-17T14:51:35.267Z,55.86
2023-10-17T14:54:09.536Z,55.86
2023-10-17T14:56:37.810Z,55.81
2023-10-17T14:59:06.933Z,55.65
2023-10-17T15:01:36.729Z,56.15
2023-10-17T15:04:05.763Z,56.33
2023-10-17T15:06:34.026Z,56.52
2023-10-17T15:09:02.134Z,56.56
2023-10-17T15:11:30.459Z,56.80
2023-10-17T15:13:58.727Z,56.65
2023-10-17T15:16:27.045Z,56.32
2023-10-17T15:18:56.266Z,56.87
2023-10-17T15:21:25.040Z,56.85
2023-10-17T15:23:53.316Z,56.98
2023-10-17T15:26:23.136Z,57.29
2023-10-17T15:28:51.947Z,57.11
2023-10-17T15:31:20.400Z,57.31
2023-10-17T15:33:48.681Z,57.77
2023-10-17T15:36:22.374Z,57.83
2023-10-17T15:38:50.713Z,57.47
2023-10-17T15:41:18.949Z,57.92
2023-10-17T15:43:47.182Z,57.58
2023-10-17T15:46:17.088Z,57.84
2023-10-17T15:48:45.688Z,57.94
2023-10-17T15:51:21.082Z,58.20
2023-10-17T15:53:49.371Z,58.13
2023-10-17T15:56:17.522Z,57.74
2023-10-17T15:58:46.408Z,58.21
2023-10-17T16:01:15.051Z,57.91
2023-10-17T16:03:48.301Z,58.08
2023-10-17T16:06:17.201Z,58.53
2023-10-17T16:08:47.066Z,58.26
2023-10-17T16:11:17.530Z,57.94
2023-10-17T16:13:45.986Z,57.98
2023-10-17T16:16:17.557Z,58.14
2023-10-17T16:18:47.270Z,58.30
2023-10-17T16:21:16.882Z,58.25
2023-10-17T16:23:49.217Z,58.78
2023-10-17T16:26:21.512Z,58.95
2023-10-17T16:28:49.737Z,59.06
2023-10-17T16:31:17.847Z,59.20
2023-10-17T16:33:45.978Z,58.91
2023-10-17T16:36:15.541Z,58.88
2023-10-17T16:38:47.617Z,59.29
2023-10-17T16:41:16.106Z,59.50
2023-10-17T16:43:44.211Z,59.82
2023-10-17T16:46:13.246Z,59.79
2023-10-17T16:48:42.452Z,59.87
2023-10-17T16:51:10.717Z,60.35
2023-10-17T16:53:39.953Z,60.55
2023-10-17T16:56:08.156Z,59.94
2023-10-17T16:58:39.348Z,60.08
2023-10-17T17:01:08.445Z,60.29
2023-10-17T17:03:37.312Z,60.09
2023-10-17T17:06:09.758Z,60.57
2023-10-17T17:08:38.631Z,60.90
2023-10-17T17:11:07.102Z,60.77
2023-10-17T17:13:37.971Z,60.54
2023-10-17T17:16:08.764Z,60.59
2023-10-17T17:18:47.369Z,60.72
2023-10-17T17:21:18.496Z,60.51
2023-10-17T17:23:47.283Z,61.14
2023-10-17T17:26:17.074Z,61.35
2023-10-17T17:28:45.389Z,61.62
2023-10-17T17:31:13.532Z,61.38
2023-10-17T17:33:41.945Z,61.50
2023-10-17T17:36:09.976Z,60.59
2023-10-17T17:38:41.195Z,60.78
2023-10-17T17:41:09.348Z,61.04
2023-10-17T17:43:37.564Z,61.67
2023-10-17T17:46:06.617Z,61.63
2023-10-17T17:48:36.042Z,61.38
2023-10-17T17:51:05.149Z,61.23
2023-10-17T17:53:33.718Z,61.34
2023-10-17T17:56:02.457Z,60.98
2023-10-17T17:58:30.571Z,60.65
2023-10-17T18:00:59.672Z,61.06
2023-10-17T18:03:29.009Z,61.06
2023-10-17T18:05:57.384Z,61.00
2023-10-17T18:08:27.565Z,60.98
2023-10-17T18:10:57.122Z,61.33
2023-10-17T18:13:25.192Z,61.60
2023-10-17T18:15:55.044Z,61.74
2023-10-17T18:18:24.143Z,61.85
2023-10-17T18:21:12.795Z,61.46
2023-10-17T18:23:49.154Z,61.34
2023-10-17T18:26:22.309Z,61.29
2023-10-17T18:28:54.651Z,61.60
2023-10-17T18:31:22.724Z,61.96
2023-10-17T18:33:50.873Z,61.52
2023-10-17T18:36:19.740Z,61.85
2023-10-17T18:38:48.124Z,61.56
2023-10-17T18:41:16.096Z,61.24
2023-10-17T18:43:47.236Z,61.50
2023-10-17T18:46:20.357Z,61.37
2023-10-17T18:48:48.791Z,61.26
2023-10-17T18:51:16.706Z,61.20
2023-10-17T18:53:46.154Z,61.14
2023-10-17T18:56:15.180Z,61.26
2023-10-17T18:58:43.249Z,60.98
2023-10-17T19:01:15.837Z,61.01
2023-10-17T19:03:46.035Z,60.60
2023-10-17T19:06:14.981Z,60.75
2023-10-17T19:08:43.966Z,61.24
2023-10-17T19:11:13.554Z,60.86
2023-10-17T19:13:42.476Z,60.73
2023-10-17T19:16:11.900Z,60.95
2023-10-17T19:18:42.469Z,60.88
2023-10-17T19:21:13.827Z,60.68
2023-10-17T19:23:45.345Z,60.37
2023-10-17T19:26:14.902Z,60.66
2023-10-17T19:28:46.837Z,60.79
2023-10-17T19:31:20.572Z,60.72
2023-10-17T19:33:48.943Z,60.69
2023-10-17T19:36:17.090Z,60.63
2023-10-17T19:38:45.421Z,60.67
2023-10-17T19:41:14.860Z,60.67
2023-10-17T19:43:42.853Z,60.94
2023-10-17T19:46:12.110Z,60.94
2023-10-17T19:48:40.757Z,60.79
2023-10-17T19:51:08.989Z,61.02
2023-10-17T19:53:40.116Z,60.94
2023-10-17T19:56:09.442Z,60.40
2023-10-17T19:58:37.893Z,60.54
2023-10-17T20:01:09.867Z,59.69
2023-10-17T20:03:38.478Z,60.09
2023-10-17T20:06:07.246Z,59.73
2023-10-17T20:08:35.520Z,59.78
2023-10-17T20:11:06.133Z,60.01
2023-10-17T20:13:34.838Z,59.68
2023-10-17T20:16:07.442Z,60.10
2023-10-17T20:18:38.605Z,60.02
2023-10-17T20:21:08.140Z,59.78
2023-10-17T20:23:37.256Z,59.95
2023-10-17T20:26:05.152Z,59.82
2023-10-17T20:28:33.157Z,60.10
2023-10-17T20:31:10.287Z,60.10
2023-10-17T20:33:41.391Z,59.55
2023-10-17T20:36:09.876Z,60.13
2023-10-17T20:38:37.970Z,60.29
2023-10-17T20:41:11.875Z,60.32
2023-10-17T20:43:39.798Z,59.82
2023-10-17T20:46:07.765Z,59.83
2023-10-17T20:48:35.808Z,59.98
2023-10-17T20:51:05.314Z,59.80
2023-10-17T20:53:34.030Z,59.72
2023-10-17T20:56:02.963Z,59.83
2023-10-17T20:58:31.600Z,59.69
2023-10-17T21:01:04.790Z,59.56
2023-10-17T21:03:34.459Z,59.46
2023-10-17T21:06:03.757Z,59.37
2023-10-17T21:08:32.301Z,59.39
2023-10-17T21:11:00.880Z,59.56
2023-10-17T21:13:30.461Z,59.67
2023-10-17T21:16:10.868Z,59.77
2023-10-17T21:18:40.533Z,59.82
2023-10-17T21:21:09.376Z,59.77
2023-10-17T21:23:37.857Z,59.82
2023-10-17T21:26:06.109Z,59.46
2023-10-17T21:28:34.367Z,59.68
2023-10-17T21:31:06.401Z,59.45
2023-10-17T21:33:36.710Z,59.72
2023-10-17T21:36:08.363Z,59.51
2023-10-17T21:38:39.082Z,59.50
2023-10-17T21:41:09.029Z,59.78
2023-10-17T21:43:40.341Z,59.69
2023-10-17T21:46:09.270Z,59.79
2023-10-17T21:48:37.630Z,59.92
2023-10-17T21:51:10.853Z,60.08
2023-10-17T21:53:41.002Z,59.75
2023-10-17T21:56:09.405Z,59.63
2023-10-17T21:58:39.836Z,59.59
2023-10-17T22:01:17.016Z,59.65
2023-10-17T22:03:45.366Z,59.80
2023-10-17T22:06:16.456Z,59.65
2023-10-17T22:08:46.502Z,59.46
2023-10-17T22:11:14.890Z,59.79
2023-10-17T22:13:46.271Z,59.89
2023-10-17T22:16:15.909Z,59.50
2023-10-17T22:18:45.193Z,59.52
2023-10-17T22:21:14.057Z,59.68
2023-10-17T22:23:42.033Z,59.52
2023-10-17T22:26:14.752Z,59.58
2023-10-17T22:28:43.342Z,59.71
2023-10-17T22:31:11.496Z,59.62
2023-10-17T22:33:40.994Z,59.48
2023-10-17T22:36:09.838Z,59.60
2023-10-17T22:38:37.870Z,59.47
2023-10-17T22:41:06.135Z,59.49
2023-10-17T22:43:35.138Z,59.79
2023-10-17T22:46:06.477Z,59.59
2023-10-17T22:48:35.599Z,59.58
2023-10-17T22:51:06.341Z,59.68
2023-10-17T22:53:34.983Z,59.95
2023-10-17T22:56:03.780Z,59.97
2023-10-17T22:58:31.998Z,59.87
2023-10-17T23:01:00.032Z,59.54
2023-10-17T23:03:28.657Z,59.67
2023-10-17T23:05:57.311Z,59.95
2023-10-17T23:08:25.703Z,59.74
2023-10-17T23:10:53.830Z,59.89
2023-10-17T23:13:22.649Z,60.12
2023-10-17T23:15:50.760Z,59.70
2023-10-17T23:18:19.752Z,59.79
2023-10-17T23:20:48.474Z,59.87
2023-10-17T23:23:21.342Z,59.77
2023-10-17T23:25:55.818Z,59.65
2023-10-17T23:28:27.866Z,59.84
2023-10-17T23:30:56.291Z,60.09
2023-10-17T23:33:24.685Z,60.22
2023-10-17T23:35:53.358Z,60.03
2023-10-17T23:38:22.910Z,60.00
2023-10-17T23:40:50.847Z,60.18
2023-10-17T23:43:18.704Z,59.71
2023-10-17T23:45:51.460Z,60.12
2023-10-17T23:48:27.851Z,59.75
2023-10-17T23:50:56.733Z,60.24
2023-10-17T23:53:30.568Z,60.27
2023-10-17T23:56:03.908Z,59.71
2023-10-17T23:58:33.451Z,60.03
